Latest Coastal Weather Observations for Friendly Beaches

IDT60701

Issued at 5:32 am EDT Sunday 25 October 2020 (issued every 10 minutes, with the page automatically refreshed every 10 minutes)

About coastal observations | Map of coastal stations | Coastal observations for TAS | Marine services | Other Formats
Station Details ID: 092114 Name: FRIENDLY BEACHES Lat: -42.00 Lon: 148.28 Height: 55.0 m
Data from the previous 72 hours. | See also: Recent months at Friendly Beaches
Date/Time
EDT
Wind Sea
Height
m
Swell Vis
km
Cloud Weather Temp
°C
Press
MSL
hPa
Rain since
9am
mm
Dir  Spd
kts
Gust
kts
Height
m
Period
s
Dir
25/05:30am SW 10 17 - - - - - - - 6.5 1017.2 2.8
25/05:00am SW 11 19 - - - - - - - 6.8 1016.7 2.8
25/04:30am SW 9 16 - - - - - - - 6.5 1016.2 2.8
25/04:00am SW 9 15 - - - - - - - 7.0 1015.8 2.8
25/03:30am SW 10 17 - - - - - - - 7.2 1015.2 2.8
25/03:00am SW 10 17 - - - - - - - 7.2 1014.5 2.8
25/02:30am SW 9 15 - - - - - - - 7.3 1014.0 2.8
25/02:00am SW 7 12 - - - - - - - 7.5 1013.8 2.8
25/01:30am SW 11 18 - - - - - - - 7.5 1013.1 2.8
25/01:00am SW 9 16 - - - - - - - 7.7 1012.8 2.8
25/12:30am SW 10 17 - - - - - - - 7.7 1012.4 2.8
25/12:00am SW 11 18 - - - - - - - 7.6 1011.9 2.8
 
Date/Time
EDT
Wind Sea
Height
m
Swell Vis
km
Cloud Weather Temp
°C
Press
MSL
hPa
Rain since
9am
mm
Dir  Spd
kts
Gust
kts
Height
m
Period
s
Dir
24/11:30pm SSW 11 19 - - - - - - - 7.6 1011.3 2.8
24/11:00pm SSW 13 24 - - - - - - - 7.5 1010.9 2.8
24/10:34pm SSW 15 27 - - - - - - - 7.5 1010.2 2.8
24/10:30pm SSW 14 25 - - - - - - - 7.5 1010.2 2.8
24/10:00pm SSW 16 31 - - - - - - - 7.4 1009.2 2.6
24/09:55pm SSW 15 31 - - - - - - - 7.4 1009.2 2.6
24/09:30pm S 13 21 - - - - - - - 8.1 1008.9 1.0
24/09:00pm SSE 7 11 - - - - - - - 11.0 1008.0 0.0
24/08:30pm SE 3 5 - - - - - - - 10.9 1007.2 0.0
24/08:00pm ESE 3 4 - - - - - - - 11.1 1006.6 0.0
24/07:30pm SE 3 5 - - - - - - - 11.5 1006.0 0.0
24/07:00pm ESE 5 7 - - - - - - - 11.4 1005.5 0.0
24/06:30pm ESE 5 7 - - - - - - - 11.7 1005.1 0.0
24/06:00pm SE 7 10 - - - - - - - 11.8 1004.7 0.0
24/05:30pm SE 9 12 - - - - - - - 12.3 1004.2 0.0
24/05:00pm ESE 9 12 - - - - - - - 13.8 1003.7 0.0
24/04:30pm SE 10 16 - - - - - - - 13.6 1003.1 0.0
24/04:00pm SE 13 18 - - - - - - - 13.2 1002.8 0.0
24/03:30pm SE 14 19 - - - - - - - 13.4 1002.6 0.0
24/03:00pm SE 15 21 - - - - - - - 13.9 1002.5 0.0
24/02:30pm SE 15 20 - - - - - - - 13.6 1002.6 0.0
24/02:00pm SE 15 21 - - - - - - - 14.3 1002.3 0.0
24/01:30pm SE 14 19 - - - - - - - 15.1 1002.0 0.0
24/01:00pm SE 11 17 - - - - - - - 16.1 1001.8 0.0
24/12:30pm SE 12 16 - - - - - - - 14.7 1001.9 0.0
24/12:00pm SE 8 12 - - - - - - - 14.7 1002.0 0.0
24/11:30am SSE 8 13 - - - - - - - 13.7 1002.0 0.0
24/11:00am SSE 9 12 - - - - - - - 13.0 1001.9 0.0
24/10:30am SE 9 13 - - - - - - - 12.9 1002.0 0.0
24/10:00am SSE 5 7 - - - - - - - 13.1 1001.8 0.0
24/09:30am S 4 7 - - - - - - - 12.6 1001.7 0.0
24/09:00am S 5 8 - - - - - - - 11.9 1001.7 8.2
24/08:30am S 5 7 - - - - - - - 11.9 1001.7 8.2
24/08:00am S 6 8 - - - - - - - 11.8 1001.5 8.2
24/07:30am S 6 11 - - - - - - - 11.7 1001.3 8.2
24/07:00am S 8 14 - - - - - - - 11.9 1001.3 8.2
24/06:30am SSW 2 4 - - - - - - - 12.6 1001.3 8.2
24/06:00am W 3 4 - - - - - - Rain 12.6 1001.1 7.8
24/05:30am CALM 0 0 - - - - - - - 12.5 1001.0 7.0
24/05:00am S 2 3 - - - - - - - 12.5 1000.9 5.6
24/04:30am ENE 2 2 - - - - - - - 12.6 1001.1 4.4
24/04:00am ENE 3 4 - - - - - - - 12.6 1001.1 3.4
24/03:30am ESE 2 3 - - - - - - - 12.8 1001.2 2.2
24/03:00am WNW 1 1 - - - - - - - 13.0 1001.3 1.8
24/02:30am W 1 2 - - - - - - - 12.9 1001.7 1.8
24/02:00am W 2 3 - - - - - - - 12.8 1002.1 1.8
24/01:30am CALM 0 0 - - - - - - - 12.9 1002.7 1.8
24/01:00am CALM 0 0 - - - - - - - 12.9 1003.1 1.8
24/12:30am CALM 0 0 - - - - - - - 12.9 1003.6 1.8
24/12:00am NE 2 3 - - - - - - Recent precip. 13.0 1003.8 1.8
 
Date/Time
EDT
Wind Sea
Height
m
Swell Vis
km
Cloud Weather Temp
°C
Press
MSL
hPa
Rain since
9am
mm
Dir  Spd
kts
Gust
kts
Height
m
Period
s
Dir
23/11:30pm NNW 3 4 - - - - - - - 13.0 1004.0 1.8
23/11:00pm NNE 2 5 - - - - - - - 13.1 1004.4 1.6
23/10:30pm CALM 0 0 - - - - - - - 12.9 1004.7 1.6
23/10:00pm CALM 0 0 - - - - - - - 12.9 1005.1 1.6
23/09:30pm CALM 0 0 - - - - - - - 13.1 1005.4 1.6
23/09:00pm CALM 0 0 - - - - - - - 13.3 1005.5 1.6
23/08:30pm CALM 0 0 - - - - - - - 13.7 1005.8 1.6
23/08:00pm CALM 0 2 - - - - - - - 13.6 1005.5 1.6
23/07:30pm N 1 3 - - - - - - - 13.6 1005.5 1.6
23/07:00pm NNE 4 6 - - - - - - - 13.5 1005.4 1.6
23/06:30pm NNE 4 6 - - - - - - - 13.8 1005.6 1.6
23/06:00pm NNE 4 8 - - - - - - - 15.2 1005.8 1.6
23/05:30pm NNE 2 5 - - - - - - - 15.3 1005.6 1.6
23/05:00pm NNE 5 9 - - - - - - - 14.4 1005.9 1.6
23/04:30pm NNW 2 5 - - - - - - - 14.1 1006.2 1.6
23/04:00pm NNE 5 8 - - - - - - - 14.1 1006.5 1.6
23/03:30pm NNE 7 11 - - - - - - - 14.7 1006.8 1.6
23/03:00pm NNE 5 8 - - - - - - - 15.0 1007.0 1.6
23/02:30pm NE 4 6 - - - - - - - 14.0 1007.3 1.6
23/02:00pm NNE 3 4 - - - - - - - 13.6 1007.6 1.6
23/01:30pm NE 3 4 - - - - - - - 13.5 1008.0 1.4
23/01:00pm NNE 3 5 - - - - - - - 13.5 1008.3 1.2
23/12:30pm NNE 3 5 - - - - - - - 14.0 1008.7 0.4
23/12:00pm NNE 5 9 - - - - - - - 15.0 1009.0 0.0
23/11:30am NE 6 8 - - - - - - - 15.7 1009.3 0.0
23/11:00am NE 6 9 - - - - - - - 15.9 1009.6 0.0
23/10:30am N 4 7 - - - - - - - 15.3 1010.1 0.0
23/10:00am NNE 4 8 - - - - - - - 15.9 1010.3 0.0
23/09:30am NE 6 9 - - - - - - - 15.0 1010.3 0.0
23/09:00am NE 3 5 - - - - - - - 14.6 1010.4 -
23/08:30am NW 4 8 - - - - - - - 13.6 1010.9 0.6
23/08:00am WNW 5 7 - - - - - - - 11.5 1011.4 0.6
23/07:30am W 5 7 - - - - - - - 10.1 1011.1 0.6
23/07:00am NNE 5 8 - - - - - - - 11.0 1010.8 0.6
23/06:30am NNE 4 6 - - - - - - - 10.8 1010.8 0.6
23/06:00am N 6 9 - - - - - - - 10.6 1010.9 0.6
23/05:30am N 3 5 - - - - - - - 9.6 1010.9 0.6
23/05:00am CALM 0 2 - - - - - - - 9.7 1010.9 0.6
23/04:30am N 4 6 - - - - - - - 10.4 1011.1 0.6
23/04:00am NNE 4 7 - - - - - - - 10.1 1011.2 0.6
23/03:30am NNE 5 6 - - - - - - - 10.4 1011.7 0.6
23/03:00am N 5 7 - - - - - - - 10.8 1012.4 0.6
23/02:30am N 5 7 - - - - - - - 10.9 1012.8 0.6
23/02:00am N 4 8 - - - - - - - 11.1 1013.5 0.6
23/01:30am N 3 6 - - - - - - - 10.6 1013.9 0.6
23/01:00am NNE 3 4 - - - - - - - 10.8 1014.1 0.6
23/12:30am N 3 5 - - - - - - - 11.5 1014.4 0.6
23/12:00am N 4 7 - - - - - - - 11.9 1014.9 0.6
 
Date/Time
EDT
Wind Sea
Height
m
Swell Vis
km
Cloud Weather Temp
°C
Press
MSL
hPa
Rain since
9am
mm
Dir  Spd
kts
Gust
kts
Height
m
Period
s
Dir
22/11:30pm N 6 10 - - - - - - - 11.7 1015.1 0.6
22/11:00pm N 4 7 - - - - - - - 11.4 1015.4 0.6
22/10:30pm N 4 7 - - - - - - - 11.4 1015.6 0.6
22/10:00pm NNE 4 6 - - - - - - - 11.8 1015.8 0.6
22/09:30pm NNE 3 6 - - - - - - - 11.4 1015.7 0.6
22/09:00pm N 5 11 - - - - - - Rain 12.0 1015.7 0.6
22/08:30pm NE 6 11 - - - - - - - 13.1 1015.7 0.0
22/08:00pm ENE 6 9 - - - - - - - 13.0 1015.6 0.0
22/07:30pm ENE 5 8 - - - - - - - 12.9 1015.5 0.0
22/07:00pm ENE 6 8 - - - - - - - 13.2 1015.6 0.0
22/06:30pm ENE 6 10 - - - - - - - 13.6 1015.6 0.0
22/06:00pm ENE 7 11 - - - - - - - 14.7 1015.2 0.0
22/05:30pm E 8 13 - - - - - - - 15.7 1015.1 0.0
22/05:00pm E 8 10 - - - - - - - 16.4 1015.4 0.0
22/04:30pm E 7 10 - - - - - - - 15.6 1015.9 0.0
22/04:00pm ESE 8 12 - - - - - - - 15.1 1016.0 0.0
22/03:30pm ESE 8 10 - - - - - - - 14.9 1016.1 0.0
22/03:00pm ESE 9 11 - - - - - - - 16.1 1016.1 0.0
22/02:30pm ESE 8 11 - - - - - - - 16.2 1016.1 0.0
22/02:00pm ESE 8 11 - - - - - - - 16.5 1016.2 0.0
22/01:30pm ESE 8 11 - - - - - - - 15.9 1016.5 0.0
22/01:00pm ESE 8 11 - - - - - - - 16.1 1016.5 0.0
22/12:30pm SE 8 11 - - - - - - - 16.1 1016.7 0.0
22/12:00pm ESE 8 11 - - - - - - - 15.3 1016.9 0.0
22/11:30am SE 9 11 - - - - - - - 15.5 1017.0 0.0
22/11:00am SE 8 11 - - - - - - - 14.9 1017.2 0.0
22/10:30am SE 9 12 - - - - - - - 14.5 1017.1 0.0
22/10:00am SE 7 10 - - - - - - - 15.2 1017.2 0.0
22/09:30am SE 2 3 - - - - - - - 13.1 1017.3 0.0
22/09:00am ESE 2 3 - - - - - - - 12.6 1017.2 0.0
22/08:30am NW 1 2 - - - - - - - 12.1 1017.0 0.0
22/08:00am CALM 0 0 - - - - - - - 11.6 1016.8 0.0
22/07:30am WNW 1 2 - - - - - - - 11.4 1016.6 0.0
22/07:00am WNW 2 3 - - - - - - - 10.8 1016.3 0.0
22/06:30am WNW 3 3 - - - - - - - 10.7 1016.1 0.0
22/06:00am WNW 3 4 - - - - - - - 10.6 1015.8 0.0

Other formats

Comma delimited format used in spreadsheet applications
http://www.bom.gov.au/fwo/IDT60701/IDT60701.94987.axf

JavaScript Object Notation format (JSON) in row-major order
http://www.bom.gov.au/fwo/IDT60701/IDT60701.94987.json

Data quality

Most of these data are generated automatically and are frequently updated. Quality checks on data are not normally performed. It is possible for incorrect values to appear. Refer to information at About Latest Weather Observations and please check the disclaimer before using these data.